sensor_id;sensor_type;location;lat;lon;timestamp;P1;durP1;ratioP1;P2;durP2;ratioP2
70169;SDS011;57543;45.442;9.212;2023-05-15T00:01:32;4.40;;;2.80;;
70169;SDS011;57543;45.442;9.212;2023-05-15T00:04:35;5.88;;;3.40;;
70169;SDS011;57543;45.442;9.212;2023-05-15T00:07:39;5.13;;;3.30;;
70169;SDS011;57543;45.442;9.212;2023-05-15T00:10:48;5.93;;;3.72;;
70169;SDS011;57543;45.442;9.212;2023-05-15T00:13:52;5.23;;;3.00;;
70169;SDS011;57543;45.442;9.212;2023-05-15T00:16:56;5.13;;;3.10;;
70169;SDS011;57543;45.442;9.212;2023-05-15T00:20:00;5.55;;;2.90;;
70169;SDS011;57543;45.442;9.212;2023-05-15T00:23:03;5.60;;;3.30;;
70169;SDS011;57543;45.442;9.212;2023-05-15T00:26:07;4.43;;;2.90;;
70169;SDS011;57543;45.442;9.212;2023-05-15T00:29:11;5.90;;;2.60;;
70169;SDS011;57543;45.442;9.212;2023-05-15T00:32:15;4.88;;;2.83;;
70169;SDS011;57543;45.442;9.212;2023-05-15T00:35:19;6.55;;;3.40;;
70169;SDS011;57543;45.442;9.212;2023-05-15T00:38:22;7.07;;;3.30;;
70169;SDS011;57543;45.442;9.212;2023-05-15T00:41:26;4.80;;;3.00;;
70169;SDS011;57543;45.442;9.212;2023-05-15T00:44:30;5.33;;;3.10;;
70169;SDS011;57543;45.442;9.212;2023-05-15T00:47:34;5.00;;;3.03;;
70169;SDS011;57543;45.442;9.212;2023-05-15T00:50:38;4.55;;;3.13;;
70169;SDS011;57543;45.442;9.212;2023-05-15T00:53:43;5.63;;;3.00;;
70169;SDS011;57543;45.442;9.212;2023-05-15T00:56:47;4.70;;;3.10;;
70169;SDS011;57543;45.442;9.212;2023-05-15T00:59:53;5.57;;;2.77;;
70169;SDS011;57543;45.442;9.212;2023-05-15T01:03:01;6.32;;;3.00;;
70169;SDS011;57543;45.442;9.212;2023-05-15T01:06:04;5.53;;;3.05;;
70169;SDS011;57543;45.442;9.212;2023-05-15T01:09:10;5.03;;;3.28;;
70169;SDS011;57543;45.442;9.212;2023-05-15T01:12:15;4.15;;;2.65;;
70169;SDS011;57543;45.442;9.212;2023-05-15T01:15:21;4.00;;;2.50;;
70169;SDS011;57543;45.442;9.212;2023-05-15T01:18:25;3.92;;;2.38;;
70169;SDS011;57543;45.442;9.212;2023-05-15T01:24:50;3.95;;;2.58;;
70169;SDS011;57543;45.442;9.212;2023-05-15T01:28:17;5.68;;;2.40;;
70169;SDS011;57543;45.442;9.212;2023-05-15T01:31:23;3.97;;;2.70;;
70169;SDS011;57543;45.442;9.212;2023-05-15T01:34:42;4.60;;;2.50;;
70169;SDS011;57543;45.442;9.212;2023-05-15T01:38:02;3.97;;;2.63;;
70169;SDS011;57543;45.442;9.212;2023-05-15T01:41:27;3.95;;;2.58;;
70169;SDS011;57543;45.442;9.212;2023-05-15T01:44:44;4.57;;;2.70;;
70169;SDS011;57543;45.442;9.212;2023-05-15T01:47:52;5.50;;;2.23;;
70169;SDS011;57543;45.442;9.212;2023-05-15T01:50:57;4.13;;;2.17;;
70169;SDS011;57543;45.442;9.212;2023-05-15T01:54:05;4.57;;;2.70;;
70169;SDS011;57543;45.442;9.212;2023-05-15T01:57:10;4.40;;;2.13;;
70169;SDS011;57543;45.442;9.212;2023-05-15T02:00:18;3.90;;;2.22;;
70169;SDS011;57543;45.442;9.212;2023-05-15T02:03:22;4.40;;;2.23;;
70169;SDS011;57543;45.442;9.212;2023-05-15T02:06:27;5.00;;;3.00;;
70169;SDS011;57543;45.442;9.212;2023-05-15T02:09:31;3.65;;;2.20;;
70169;SDS011;57543;45.442;9.212;2023-05-15T02:12:39;4.50;;;2.22;;
70169;SDS011;57543;45.442;9.212;2023-05-15T02:15:43;4.43;;;2.38;;
70169;SDS011;57543;45.442;9.212;2023-05-15T02:18:47;5.27;;;2.40;;
70169;SDS011;57543;45.442;9.212;2023-05-15T02:21:51;5.25;;;2.25;;
70169;SDS011;57543;45.442;9.212;2023-05-15T02:24:55;3.67;;;2.28;;
70169;SDS011;57543;45.442;9.212;2023-05-15T02:27:59;4.10;;;2.20;;
70169;SDS011;57543;45.442;9.212;2023-05-15T02:31:05;3.83;;;2.20;;
70169;SDS011;57543;45.442;9.212;2023-05-15T02:37:30;4.28;;;2.00;;
70169;SDS011;57543;45.442;9.212;2023-05-15T02:40:38;4.13;;;2.63;;
70169;SDS011;57543;45.442;9.212;2023-05-15T02:43:42;4.35;;;2.30;;
70169;SDS011;57543;45.442;9.212;2023-05-15T02:46:46;3.65;;;2.10;;
70169;SDS011;57543;45.442;9.212;2023-05-15T02:49:51;3.70;;;2.17;;
70169;SDS011;57543;45.442;9.212;2023-05-15T02:53:02;4.28;;;2.22;;
70169;SDS011;57543;45.442;9.212;2023-05-15T02:56:07;4.32;;;2.40;;
70169;SDS011;57543;45.442;9.212;2023-05-15T02:59:11;3.70;;;2.03;;
70169;SDS011;57543;45.442;9.212;2023-05-15T03:02:21;4.57;;;2.25;;
70169;SDS011;57543;45.442;9.212;2023-05-15T03:05:24;4.97;;;2.13;;
70169;SDS011;57543;45.442;9.212;2023-05-15T03:08:31;5.97;;;2.25;;
70169;SDS011;57543;45.442;9.212;2023-05-15T03:11:34;4.68;;;2.38;;
70169;SDS011;57543;45.442;9.212;2023-05-15T03:14:37;5.07;;;2.10;;
70169;SDS011;57543;45.442;9.212;2023-05-15T03:17:41;4.32;;;2.45;;
70169;SDS011;57543;45.442;9.212;2023-05-15T03:20:49;4.30;;;2.50;;
70169;SDS011;57543;45.442;9.212;2023-05-15T03:23:55;4.47;;;2.63;;
70169;SDS011;57543;45.442;9.212;2023-05-15T03:26:59;4.25;;;2.55;;
70169;SDS011;57543;45.442;9.212;2023-05-15T03:30:03;5.57;;;2.70;;
70169;SDS011;57543;45.442;9.212;2023-05-15T03:33:07;5.88;;;2.88;;
70169;SDS011;57543;45.442;9.212;2023-05-15T03:36:11;5.07;;;2.53;;
70169;SDS011;57543;45.442;9.212;2023-05-15T03:39:15;4.50;;;2.40;;
70169;SDS011;57543;45.442;9.212;2023-05-15T03:42:21;4.80;;;2.80;;
70169;SDS011;57543;45.442;9.212;2023-05-15T03:45:25;5.35;;;2.60;;
70169;SDS011;57543;45.442;9.212;2023-05-15T03:48:29;4.47;;;2.78;;
70169;SDS011;57543;45.442;9.212;2023-05-15T03:51:33;5.10;;;3.00;;
70169;SDS011;57543;45.442;9.212;2023-05-15T03:54:38;4.60;;;2.90;;
70169;SDS011;57543;45.442;9.212;2023-05-15T03:57:43;5.22;;;2.90;;
70169;SDS011;57543;45.442;9.212;2023-05-15T04:00:46;5.20;;;2.85;;
70169;SDS011;57543;45.442;9.212;2023-05-15T04:03:51;4.40;;;2.70;;
70169;SDS011;57543;45.442;9.212;2023-05-15T04:06:54;5.20;;;2.87;;
70169;SDS011;57543;45.442;9.212;2023-05-15T04:09:58;4.82;;;3.25;;
70169;SDS011;57543;45.442;9.212;2023-05-15T04:13:04;4.85;;;3.25;;
70169;SDS011;57543;45.442;9.212;2023-05-15T04:16:07;4.85;;;3.10;;
70169;SDS011;57543;45.442;9.212;2023-05-15T04:19:12;6.05;;;3.83;;
70169;SDS011;57543;45.442;9.212;2023-05-15T04:22:16;6.47;;;3.57;;
70169;SDS011;57543;45.442;9.212;2023-05-15T04:25:19;7.80;;;4.50;;
70169;SDS011;57543;45.442;9.212;2023-05-15T04:28:23;8.95;;;5.68;;
70169;SDS011;57543;45.442;9.212;2023-05-15T04:31:26;8.02;;;5.40;;
70169;SDS011;57543;45.442;9.212;2023-05-15T04:34:30;8.88;;;5.82;;
70169;SDS011;57543;45.442;9.212;2023-05-15T04:37:33;7.30;;;4.87;;
70169;SDS011;57543;45.442;9.212;2023-05-15T04:40:39;8.27;;;5.22;;
70169;SDS011;57543;45.442;9.212;2023-05-15T04:43:42;9.75;;;6.55;;
70169;SDS011;57543;45.442;9.212;2023-05-15T04:46:46;10.43;;;6.63;;
70169;SDS011;57543;45.442;9.212;2023-05-15T04:49:49;10.88;;;6.93;;
70169;SDS011;57543;45.442;9.212;2023-05-15T04:52:53;9.70;;;6.83;;
70169;SDS011;57543;45.442;9.212;2023-05-15T04:55:56;9.82;;;6.20;;
70169;SDS011;57543;45.442;9.212;2023-05-15T04:59:00;10.80;;;7.25;;
70169;SDS011;57543;45.442;9.212;2023-05-15T05:02:04;9.40;;;6.63;;
70169;SDS011;57543;45.442;9.212;2023-05-15T05:05:08;9.23;;;6.25;;
70169;SDS011;57543;45.442;9.212;2023-05-15T05:08:12;8.97;;;5.77;;
70169;SDS011;57543;45.442;9.212;2023-05-15T05:11:16;8.55;;;5.43;;
70169;SDS011;57543;45.442;9.212;2023-05-15T05:14:19;10.77;;;5.78;;
70169;SDS011;57543;45.442;9.212;2023-05-15T05:17:23;8.63;;;5.72;;
70169;SDS011;57543;45.442;9.212;2023-05-15T05:20:30;9.10;;;5.70;;
70169;SDS011;57543;45.442;9.212;2023-05-15T05:23:34;8.37;;;5.43;;
70169;SDS011;57543;45.442;9.212;2023-05-15T05:26:37;8.13;;;5.20;;
70169;SDS011;57543;45.442;9.212;2023-05-15T05:29:41;8.27;;;5.72;;
70169;SDS011;57543;45.442;9.212;2023-05-15T05:32:45;8.02;;;4.95;;
70169;SDS011;57543;45.442;9.212;2023-05-15T05:35:52;9.10;;;5.57;;
70169;SDS011;57543;45.442;9.212;2023-05-15T05:38:56;9.80;;;5.30;;
70169;SDS011;57543;45.442;9.212;2023-05-15T05:42:00;9.27;;;5.43;;
70169;SDS011;57543;45.442;9.212;2023-05-15T05:45:06;7.10;;;4.90;;
70169;SDS011;57543;45.442;9.212;2023-05-15T05:48:10;14.90;;;6.10;;
70169;SDS011;57543;45.442;9.212;2023-05-15T05:51:15;10.18;;;6.32;;
70169;SDS011;57543;45.442;9.212;2023-05-15T05:54:21;9.27;;;5.93;;
70169;SDS011;57543;45.442;9.212;2023-05-15T05:57:25;11.07;;;6.97;;
70169;SDS011;57543;45.442;9.212;2023-05-15T06:00:29;8.90;;;5.78;;
70169;SDS011;57543;45.442;9.212;2023-05-15T06:03:33;9.07;;;5.80;;
70169;SDS011;57543;45.442;9.212;2023-05-15T06:06:36;10.95;;;6.55;;
70169;SDS011;57543;45.442;9.212;2023-05-15T06:09:40;10.47;;;6.30;;
70169;SDS011;57543;45.442;9.212;2023-05-15T06:12:44;9.27;;;6.57;;
70169;SDS011;57543;45.442;9.212;2023-05-15T06:15:48;7.78;;;5.10;;
70169;SDS011;57543;45.442;9.212;2023-05-15T06:18:51;9.82;;;5.43;;
70169;SDS011;57543;45.442;9.212;2023-05-15T06:21:55;6.10;;;4.13;;
70169;SDS011;57543;45.442;9.212;2023-05-15T06:24:58;9.73;;;4.73;;
70169;SDS011;57543;45.442;9.212;2023-05-15T06:28:02;8.73;;;5.35;;
70169;SDS011;57543;45.442;9.212;2023-05-15T06:31:06;8.02;;;5.10;;
70169;SDS011;57543;45.442;9.212;2023-05-15T06:34:09;7.72;;;4.70;;
70169;SDS011;57543;45.442;9.212;2023-05-15T06:37:13;10.10;;;5.05;;
70169;SDS011;57543;45.442;9.212;2023-05-15T06:40:16;6.97;;;4.40;;
70169;SDS011;57543;45.442;9.212;2023-05-15T06:43:20;5.88;;;3.88;;
70169;SDS011;57543;45.442;9.212;2023-05-15T06:46:24;5.75;;;3.90;;
70169;SDS011;57543;45.442;9.212;2023-05-15T06:49:27;5.50;;;3.67;;
70169;SDS011;57543;45.442;9.212;2023-05-15T06:52:31;7.35;;;4.68;;
70169;SDS011;57543;45.442;9.212;2023-05-15T06:55:35;6.80;;;3.80;;
70169;SDS011;57543;45.442;9.212;2023-05-15T06:58:40;7.63;;;4.50;;
70169;SDS011;57543;45.442;9.212;2023-05-15T07:01:46;6.28;;;4.20;;
70169;SDS011;57543;45.442;9.212;2023-05-15T07:04:49;4.88;;;3.47;;
70169;SDS011;57543;45.442;9.212;2023-05-15T07:07:53;7.55;;;3.67;;
70169;SDS011;57543;45.442;9.212;2023-05-15T07:10:57;6.90;;;2.80;;
70169;SDS011;57543;45.442;9.212;2023-05-15T07:14:01;6.10;;;3.60;;
70169;SDS011;57543;45.442;9.212;2023-05-15T07:17:08;5.78;;;3.60;;
70169;SDS011;57543;45.442;9.212;2023-05-15T07:20:12;5.03;;;2.67;;
70169;SDS011;57543;45.442;9.212;2023-05-15T07:23:16;7.45;;;3.13;;
70169;SDS011;57543;45.442;9.212;2023-05-15T07:26:19;4.60;;;2.50;;
70169;SDS011;57543;45.442;9.212;2023-05-15T07:29:23;4.85;;;2.40;;
70169;SDS011;57543;45.442;9.212;2023-05-15T07:32:27;5.50;;;3.35;;
70169;SDS011;57543;45.442;9.212;2023-05-15T07:35:30;6.03;;;3.17;;
70169;SDS011;57543;45.442;9.212;2023-05-15T07:38:33;6.43;;;3.38;;
70169;SDS011;57543;45.442;9.212;2023-05-15T07:41:37;5.17;;;3.07;;
70169;SDS011;57543;45.442;9.212;2023-05-15T07:44:40;10.05;;;3.60;;
70169;SDS011;57543;45.442;9.212;2023-05-15T07:47:44;5.80;;;3.40;;
70169;SDS011;57543;45.442;9.212;2023-05-15T07:50:49;7.85;;;3.88;;
70169;SDS011;57543;45.442;9.212;2023-05-15T07:53:55;5.70;;;3.50;;
70169;SDS011;57543;45.442;9.212;2023-05-15T07:56:59;5.30;;;3.10;;
70169;SDS011;57543;45.442;9.212;2023-05-15T08:00:03;6.18;;;3.28;;
70169;SDS011;57543;45.442;9.212;2023-05-15T08:03:15;7.95;;;4.55;;
70169;SDS011;57543;45.442;9.212;2023-05-15T08:06:21;6.00;;;3.95;;
70169;SDS011;57543;45.442;9.212;2023-05-15T08:09:25;8.23;;;4.93;;
70169;SDS011;57543;45.442;9.212;2023-05-15T08:12:29;7.20;;;4.67;;
70169;SDS011;57543;45.442;9.212;2023-05-15T08:15:32;6.80;;;4.35;;
70169;SDS011;57543;45.442;9.212;2023-05-15T08:18:36;10.13;;;5.13;;
70169;SDS011;57543;45.442;9.212;2023-05-15T08:21:40;7.95;;;4.63;;
70169;SDS011;57543;45.442;9.212;2023-05-15T08:24:43;8.25;;;5.10;;
70169;SDS011;57543;45.442;9.212;2023-05-15T08:27:47;8.03;;;5.00;;
70169;SDS011;57543;45.442;9.212;2023-05-15T08:30:50;5.88;;;3.97;;
70169;SDS011;57543;45.442;9.212;2023-05-15T08:33:53;6.55;;;4.30;;
70169;SDS011;57543;45.442;9.212;2023-05-15T08:36:57;7.00;;;4.95;;
70169;SDS011;57543;45.442;9.212;2023-05-15T08:40:01;8.85;;;5.60;;
70169;SDS011;57543;45.442;9.212;2023-05-15T08:43:14;8.73;;;5.30;;
70169;SDS011;57543;45.442;9.212;2023-05-15T08:46:19;9.38;;;5.68;;
70169;SDS011;57543;45.442;9.212;2023-05-15T08:49:27;9.48;;;5.95;;
70169;SDS011;57543;45.442;9.212;2023-05-15T08:52:51;7.25;;;4.80;;
70169;SDS011;57543;45.442;9.212;2023-05-15T08:56:00;8.35;;;5.60;;
70169;SDS011;57543;45.442;9.212;2023-05-15T08:59:04;7.40;;;5.30;;
70169;SDS011;57543;45.442;9.212;2023-05-15T09:02:08;7.78;;;5.20;;
70169;SDS011;57543;45.442;9.212;2023-05-15T09:05:12;7.55;;;5.63;;
70169;SDS011;57543;45.442;9.212;2023-05-15T09:08:16;9.77;;;6.00;;
70169;SDS011;57543;45.442;9.212;2023-05-15T09:11:22;8.88;;;5.97;;
70169;SDS011;57543;45.442;9.212;2023-05-15T09:14:26;8.93;;;6.50;;
70169;SDS011;57543;45.442;9.212;2023-05-15T09:17:30;9.30;;;6.30;;
70169;SDS011;57543;45.442;9.212;2023-05-15T09:20:34;8.35;;;6.47;;
70169;SDS011;57543;45.442;9.212;2023-05-15T09:23:39;7.30;;;5.57;;
70169;SDS011;57543;45.442;9.212;2023-05-15T09:26:43;7.25;;;5.45;;
70169;SDS011;57543;45.442;9.212;2023-05-15T09:29:47;7.00;;;5.23;;
70169;SDS011;57543;45.442;9.212;2023-05-15T09:32:54;10.13;;;6.13;;
70169;SDS011;57543;45.442;9.212;2023-05-15T09:35:59;9.13;;;6.95;;
70169;SDS011;57543;45.442;9.212;2023-05-15T09:39:04;10.82;;;7.30;;
70169;SDS011;57543;45.442;9.212;2023-05-15T09:42:08;9.07;;;6.57;;
70169;SDS011;57543;45.442;9.212;2023-05-15T09:45:17;7.90;;;5.83;;
70169;SDS011;57543;45.442;9.212;2023-05-15T09:48:20;8.40;;;6.22;;
70169;SDS011;57543;45.442;9.212;2023-05-15T09:51:26;8.73;;;6.35;;
70169;SDS011;57543;45.442;9.212;2023-05-15T09:54:30;8.55;;;6.60;;
70169;SDS011;57543;45.442;9.212;2023-05-15T09:57:33;9.10;;;7.22;;
70169;SDS011;57543;45.442;9.212;2023-05-15T10:00:37;7.93;;;5.60;;
70169;SDS011;57543;45.442;9.212;2023-05-15T10:03:44;11.88;;;7.78;;
70169;SDS011;57543;45.442;9.212;2023-05-15T10:07:00;7.80;;;5.15;;
70169;SDS011;57543;45.442;9.212;2023-05-15T10:10:03;7.82;;;5.70;;
70169;SDS011;57543;45.442;9.212;2023-05-15T10:13:08;9.57;;;7.72;;
70169;SDS011;57543;45.442;9.212;2023-05-15T10:16:13;9.33;;;7.23;;
70169;SDS011;57543;45.442;9.212;2023-05-15T10:19:21;8.95;;;7.63;;
70169;SDS011;57543;45.442;9.212;2023-05-15T10:22:28;9.80;;;7.45;;
70169;SDS011;57543;45.442;9.212;2023-05-15T10:25:54;9.82;;;6.80;;
70169;SDS011;57543;45.442;9.212;2023-05-15T10:29:01;11.50;;;8.20;;
70169;SDS011;57543;45.442;9.212;2023-05-15T10:32:16;9.80;;;6.90;;
70169;SDS011;57543;45.442;9.212;2023-05-15T10:35:21;10.27;;;7.13;;
70169;SDS011;57543;45.442;9.212;2023-05-15T10:38:25;10.50;;;8.23;;
70169;SDS011;57543;45.442;9.212;2023-05-15T10:41:32;9.57;;;6.25;;
70169;SDS011;57543;45.442;9.212;2023-05-15T10:44:39;7.88;;;6.22;;
70169;SDS011;57543;45.442;9.212;2023-05-15T10:47:44;8.87;;;6.23;;
70169;SDS011;57543;45.442;9.212;2023-05-15T10:50:49;7.57;;;5.45;;
70169;SDS011;57543;45.442;9.212;2023-05-15T10:53:53;9.25;;;7.18;;
70169;SDS011;57543;45.442;9.212;2023-05-15T10:56:58;8.45;;;6.45;;
70169;SDS011;57543;45.442;9.212;2023-05-15T11:00:01;9.35;;;6.70;;
70169;SDS011;57543;45.442;9.212;2023-05-15T11:03:07;8.00;;;6.50;;
70169;SDS011;57543;45.442;9.212;2023-05-15T11:06:15;9.70;;;7.40;;
70169;SDS011;57543;45.442;9.212;2023-05-15T11:12:54;10.13;;;7.70;;
70169;SDS011;57543;45.442;9.212;2023-05-15T11:15:58;11.25;;;8.50;;
70169;SDS011;57543;45.442;9.212;2023-05-15T11:19:02;8.40;;;6.07;;
70169;SDS011;57543;45.442;9.212;2023-05-15T11:22:32;7.90;;;5.70;;
70169;SDS011;57543;45.442;9.212;2023-05-15T11:25:40;7.72;;;6.32;;
70169;SDS011;57543;45.442;9.212;2023-05-15T11:28:44;7.00;;;5.32;;
70169;SDS011;57543;45.442;9.212;2023-05-15T11:31:50;7.18;;;4.97;;
70169;SDS011;57543;45.442;9.212;2023-05-15T11:34:58;7.97;;;4.97;;
70169;SDS011;57543;45.442;9.212;2023-05-15T11:41:16;9.80;;;6.82;;
70169;SDS011;57543;45.442;9.212;2023-05-15T11:44:23;8.52;;;6.28;;
70169;SDS011;57543;45.442;9.212;2023-05-15T11:47:28;7.55;;;5.45;;
70169;SDS011;57543;45.442;9.212;2023-05-15T11:50:32;8.80;;;7.43;;
70169;SDS011;57543;45.442;9.212;2023-05-15T11:53:37;8.88;;;6.78;;
70169;SDS011;57543;45.442;9.212;2023-05-15T11:56:42;8.40;;;6.82;;
70169;SDS011;57543;45.442;9.212;2023-05-15T11:59:47;10.52;;;5.95;;
70169;SDS011;57543;45.442;9.212;2023-05-15T12:02:51;7.13;;;5.55;;
70169;SDS011;57543;45.442;9.212;2023-05-15T12:05:54;8.57;;;7.00;;
70169;SDS011;57543;45.442;9.212;2023-05-15T12:08:59;7.95;;;6.10;;
70169;SDS011;57543;45.442;9.212;2023-05-15T12:12:02;8.15;;;5.80;;
70169;SDS011;57543;45.442;9.212;2023-05-15T12:15:09;7.40;;;5.28;;
70169;SDS011;57543;45.442;9.212;2023-05-15T12:18:13;8.63;;;6.03;;
70169;SDS011;57543;45.442;9.212;2023-05-15T12:21:17;7.93;;;5.40;;
70169;SDS011;57543;45.442;9.212;2023-05-15T12:24:21;6.55;;;4.80;;
70169;SDS011;57543;45.442;9.212;2023-05-15T12:27:25;7.80;;;5.68;;
70169;SDS011;57543;45.442;9.212;2023-05-15T12:30:29;8.20;;;6.22;;
70169;SDS011;57543;45.442;9.212;2023-05-15T12:33:34;10.27;;;6.10;;
70169;SDS011;57543;45.442;9.212;2023-05-15T12:36:40;8.27;;;4.97;;
70169;SDS011;57543;45.442;9.212;2023-05-15T12:39:48;7.72;;;5.25;;
70169;SDS011;57543;45.442;9.212;2023-05-15T12:43:03;6.28;;;4.63;;
70169;SDS011;57543;45.442;9.212;2023-05-15T12:46:07;6.60;;;4.32;;
70169;SDS011;57543;45.442;9.212;2023-05-15T12:49:12;6.32;;;3.95;;
70169;SDS011;57543;45.442;9.212;2023-05-15T12:52:15;5.60;;;3.93;;
70169;SDS011;57543;45.442;9.212;2023-05-15T12:55:23;6.88;;;4.40;;
70169;SDS011;57543;45.442;9.212;2023-05-15T12:58:34;7.30;;;4.32;;
70169;SDS011;57543;45.442;9.212;2023-05-15T13:01:39;5.50;;;3.03;;
70169;SDS011;57543;45.442;9.212;2023-05-15T13:04:45;5.95;;;4.00;;
70169;SDS011;57543;45.442;9.212;2023-05-15T13:07:49;5.73;;;3.10;;
70169;SDS011;57543;45.442;9.212;2023-05-15T13:10:58;5.60;;;3.80;;
70169;SDS011;57543;45.442;9.212;2023-05-15T13:14:06;5.63;;;3.55;;
70169;SDS011;57543;45.442;9.212;2023-05-15T13:17:13;5.53;;;2.90;;
70169;SDS011;57543;45.442;9.212;2023-05-15T13:20:16;6.32;;;3.90;;
70169;SDS011;57543;45.442;9.212;2023-05-15T13:23:20;7.17;;;3.00;;
70169;SDS011;57543;45.442;9.212;2023-05-15T13:26:26;5.30;;;3.22;;
70169;SDS011;57543;45.442;9.212;2023-05-15T13:29:30;4.30;;;2.80;;
70169;SDS011;57543;45.442;9.212;2023-05-15T13:32:34;5.97;;;3.10;;
70169;SDS011;57543;45.442;9.212;2023-05-15T13:35:38;5.05;;;3.28;;
70169;SDS011;57543;45.442;9.212;2023-05-15T13:38:42;4.27;;;2.90;;
70169;SDS011;57543;45.442;9.212;2023-05-15T13:41:45;4.40;;;2.88;;
70169;SDS011;57543;45.442;9.212;2023-05-15T13:44:49;4.47;;;2.70;;
70169;SDS011;57543;45.442;9.212;2023-05-15T13:47:53;4.43;;;2.60;;
70169;SDS011;57543;45.442;9.212;2023-05-15T13:50:58;5.25;;;2.03;;
70169;SDS011;57543;45.442;9.212;2023-05-15T13:54:03;5.43;;;2.30;;
70169;SDS011;57543;45.442;9.212;2023-05-15T13:57:07;5.55;;;2.58;;
70169;SDS011;57543;45.442;9.212;2023-05-15T14:00:11;6.10;;;2.65;;
70169;SDS011;57543;45.442;9.212;2023-05-15T14:03:18;4.03;;;2.20;;
70169;SDS011;57543;45.442;9.212;2023-05-15T14:06:22;5.50;;;2.78;;
70169;SDS011;57543;45.442;9.212;2023-05-15T14:09:26;4.13;;;2.00;;
70169;SDS011;57543;45.442;9.212;2023-05-15T14:12:29;6.78;;;2.38;;
70169;SDS011;57543;45.442;9.212;2023-05-15T14:15:34;4.63;;;2.65;;
70169;SDS011;57543;45.442;9.212;2023-05-15T14:18:40;3.72;;;1.90;;
70169;SDS011;57543;45.442;9.212;2023-05-15T14:21:43;5.18;;;2.20;;
70169;SDS011;57543;45.442;9.212;2023-05-15T14:24:47;4.60;;;2.10;;
70169;SDS011;57543;45.442;9.212;2023-05-15T14:27:50;4.00;;;2.10;;
70169;SDS011;57543;45.442;9.212;2023-05-15T14:30:54;3.45;;;1.90;;
70169;SDS011;57543;45.442;9.212;2023-05-15T14:34:01;3.38;;;1.90;;
70169;SDS011;57543;45.442;9.212;2023-05-15T14:37:05;3.63;;;2.00;;
70169;SDS011;57543;45.442;9.212;2023-05-15T14:40:09;5.60;;;1.97;;
70169;SDS011;57543;45.442;9.212;2023-05-15T14:43:13;6.00;;;2.30;;
70169;SDS011;57543;45.442;9.212;2023-05-15T14:46:16;3.83;;;2.30;;
70169;SDS011;57543;45.442;9.212;2023-05-15T14:49:20;4.32;;;2.03;;
70169;SDS011;57543;45.442;9.212;2023-05-15T14:52:24;3.53;;;1.95;;
70169;SDS011;57543;45.442;9.212;2023-05-15T14:55:27;5.30;;;2.50;;
70169;SDS011;57543;45.442;9.212;2023-05-15T14:58:30;4.25;;;2.10;;
70169;SDS011;57543;45.442;9.212;2023-05-15T15:01:34;4.88;;;2.40;;
70169;SDS011;57543;45.442;9.212;2023-05-15T15:04:38;5.93;;;2.53;;
70169;SDS011;57543;45.442;9.212;2023-05-15T15:11:05;4.40;;;1.90;;
70169;SDS011;57543;45.442;9.212;2023-05-15T15:14:12;4.80;;;2.70;;
70169;SDS011;57543;45.442;9.212;2023-05-15T15:17:16;4.90;;;2.45;;
70169;SDS011;57543;45.442;9.212;2023-05-15T15:20:22;3.67;;;2.08;;
70169;SDS011;57543;45.442;9.212;2023-05-15T15:23:27;3.63;;;2.22;;
70169;SDS011;57543;45.442;9.212;2023-05-15T15:26:31;4.20;;;2.67;;
70169;SDS011;57543;45.442;9.212;2023-05-15T15:29:35;4.10;;;2.55;;
70169;SDS011;57543;45.442;9.212;2023-05-15T15:32:38;6.43;;;2.35;;
70169;SDS011;57543;45.442;9.212;2023-05-15T15:35:43;4.18;;;2.58;;
70169;SDS011;57543;45.442;9.212;2023-05-15T15:38:50;4.18;;;2.42;;
70169;SDS011;57543;45.442;9.212;2023-05-15T15:41:56;4.23;;;2.20;;
70169;SDS011;57543;45.442;9.212;2023-05-15T15:45:00;3.75;;;1.92;;
70169;SDS011;57543;45.442;9.212;2023-05-15T15:48:06;3.58;;;2.10;;
70169;SDS011;57543;45.442;9.212;2023-05-15T15:51:09;4.97;;;2.47;;
70169;SDS011;57543;45.442;9.212;2023-05-15T15:54:13;5.05;;;2.22;;
70169;SDS011;57543;45.442;9.212;2023-05-15T15:57:18;4.90;;;2.30;;
70169;SDS011;57543;45.442;9.212;2023-05-15T16:00:22;4.43;;;2.63;;
70169;SDS011;57543;45.442;9.212;2023-05-15T16:03:26;4.47;;;2.60;;
70169;SDS011;57543;45.442;9.212;2023-05-15T16:06:30;5.38;;;1.90;;
70169;SDS011;57543;45.442;9.212;2023-05-15T16:09:37;6.05;;;3.40;;
70169;SDS011;57543;45.442;9.212;2023-05-15T16:12:40;5.13;;;2.60;;
70169;SDS011;57543;45.442;9.212;2023-05-15T16:15:44;5.13;;;2.60;;
70169;SDS011;57543;45.442;9.212;2023-05-15T16:18:48;4.38;;;2.75;;
70169;SDS011;57543;45.442;9.212;2023-05-15T16:21:52;6.65;;;3.63;;
70169;SDS011;57543;45.442;9.212;2023-05-15T16:24:55;4.00;;;2.65;;
70169;SDS011;57543;45.442;9.212;2023-05-15T16:27:59;5.53;;;3.10;;
70169;SDS011;57543;45.442;9.212;2023-05-15T16:31:03;4.38;;;2.40;;
70169;SDS011;57543;45.442;9.212;2023-05-15T16:34:07;6.07;;;3.58;;
70169;SDS011;57543;45.442;9.212;2023-05-15T16:37:10;4.97;;;3.08;;
70169;SDS011;57543;45.442;9.212;2023-05-15T16:40:14;4.60;;;2.70;;
70169;SDS011;57543;45.442;9.212;2023-05-15T16:43:18;5.73;;;3.60;;
70169;SDS011;57543;45.442;9.212;2023-05-15T16:46:23;4.50;;;2.63;;
70169;SDS011;57543;45.442;9.212;2023-05-15T16:49:27;5.20;;;2.95;;
70169;SDS011;57543;45.442;9.212;2023-05-15T16:52:31;6.25;;;3.80;;
70169;SDS011;57543;45.442;9.212;2023-05-15T16:55:35;5.90;;;4.05;;
70169;SDS011;57543;45.442;9.212;2023-05-15T16:58:40;7.43;;;3.90;;
70169;SDS011;57543;45.442;9.212;2023-05-15T17:01:44;8.45;;;3.97;;
70169;SDS011;57543;45.442;9.212;2023-05-15T17:04:48;8.77;;;4.60;;
70169;SDS011;57543;45.442;9.212;2023-05-15T17:07:51;8.10;;;3.97;;
70169;SDS011;57543;45.442;9.212;2023-05-15T17:10:55;7.85;;;4.70;;
70169;SDS011;57543;45.442;9.212;2023-05-15T17:14:01;8.37;;;4.50;;
70169;SDS011;57543;45.442;9.212;2023-05-15T17:17:04;6.97;;;4.13;;
70169;SDS011;57543;45.442;9.212;2023-05-15T17:20:08;6.60;;;3.65;;
70169;SDS011;57543;45.442;9.212;2023-05-15T17:23:13;7.75;;;4.28;;
70169;SDS011;57543;45.442;9.212;2023-05-15T17:26:16;8.38;;;4.60;;
70169;SDS011;57543;45.442;9.212;2023-05-15T17:29:20;7.23;;;4.20;;
70169;SDS011;57543;45.442;9.212;2023-05-15T17:32:26;7.25;;;4.80;;
70169;SDS011;57543;45.442;9.212;2023-05-15T17:35:30;5.85;;;3.70;;
70169;SDS011;57543;45.442;9.212;2023-05-15T17:38:34;7.20;;;4.50;;
70169;SDS011;57543;45.442;9.212;2023-05-15T17:41:38;8.52;;;4.75;;
70169;SDS011;57543;45.442;9.212;2023-05-15T17:44:42;8.70;;;5.47;;
70169;SDS011;57543;45.442;9.212;2023-05-15T17:47:47;8.98;;;4.90;;
70169;SDS011;57543;45.442;9.212;2023-05-15T17:50:51;8.82;;;5.90;;
70169;SDS011;57543;45.442;9.212;2023-05-15T17:53:55;8.18;;;5.10;;
70169;SDS011;57543;45.442;9.212;2023-05-15T17:56:59;8.70;;;6.00;;
70169;SDS011;57543;45.442;9.212;2023-05-15T18:00:03;9.23;;;5.87;;
70169;SDS011;57543;45.442;9.212;2023-05-15T18:03:15;9.77;;;5.80;;
70169;SDS011;57543;45.442;9.212;2023-05-15T18:06:18;9.77;;;6.60;;
70169;SDS011;57543;45.442;9.212;2023-05-15T18:09:23;7.78;;;5.45;;
70169;SDS011;57543;45.442;9.212;2023-05-15T18:12:26;10.52;;;6.72;;
70169;SDS011;57543;45.442;9.212;2023-05-15T18:15:30;9.30;;;5.90;;
70169;SDS011;57543;45.442;9.212;2023-05-15T18:18:40;11.50;;;7.25;;
70169;SDS011;57543;45.442;9.212;2023-05-15T18:21:44;9.82;;;6.65;;
70169;SDS011;57543;45.442;9.212;2023-05-15T18:24:48;10.35;;;7.47;;
70169;SDS011;57543;45.442;9.212;2023-05-15T18:27:52;9.32;;;6.75;;
70169;SDS011;57543;45.442;9.212;2023-05-15T18:30:57;8.60;;;5.70;;
70169;SDS011;57543;45.442;9.212;2023-05-15T18:34:01;7.80;;;5.00;;
70169;SDS011;57543;45.442;9.212;2023-05-15T18:37:05;8.35;;;5.45;;
70169;SDS011;57543;45.442;9.212;2023-05-15T18:40:09;11.40;;;7.25;;
70169;SDS011;57543;45.442;9.212;2023-05-15T18:43:12;10.88;;;7.53;;
70169;SDS011;57543;45.442;9.212;2023-05-15T18:46:16;8.13;;;5.93;;
70169;SDS011;57543;45.442;9.212;2023-05-15T18:49:20;9.82;;;7.03;;